createdAt,value
2023-04-16T00:01:51.355Z,98486.38
2023-04-16T00:04:19.662Z,98491.44
2023-04-16T00:06:47.833Z,98484.16
2023-04-16T00:09:15.865Z,98492.66
2023-04-16T00:11:43.905Z,98484.72
2023-04-16T00:14:12.076Z,98490.97
2023-04-16T00:16:40.279Z,98484.66
2023-04-16T00:19:10.115Z,98495.94
2023-04-16T00:21:38.402Z,98494.94
2023-04-16T00:24:06.471Z,98499.66
2023-04-16T00:26:34.591Z,98485.81
2023-04-16T00:29:02.834Z,98499.88
2023-04-16T00:31:31.478Z,98513.16
2023-04-16T00:34:00.077Z,98509.66
2023-04-16T00:36:29.786Z,98504.22
2023-04-16T00:38:58.023Z,98505.06
2023-04-16T00:41:26.224Z,98517.34
2023-04-16T00:43:54.734Z,98505.88
2023-04-16T00:46:24.381Z,98514.56
2023-04-16T00:48:53.701Z,98525.47
2023-04-16T00:51:22.361Z,98523.31
2023-04-16T00:53:51.870Z,98521.56
2023-04-16T00:56:20.696Z,98526.94
2023-04-16T00:58:50.433Z,98522.59
2023-04-16T01:01:18.688Z,98514.16
2023-04-16T01:03:47.647Z,98527.00
2023-04-16T01:06:17.584Z,98527.63
2023-04-16T01:08:45.903Z,98527.19
2023-04-16T01:11:15.757Z,98524.25
2023-04-16T01:13:43.963Z,98525.53
2023-04-16T01:16:13.351Z,98537.81
2023-04-16T01:18:41.532Z,98532.31
2023-04-16T01:21:11.670Z,98525.50
2023-04-16T01:23:39.765Z,98526.78
2023-04-16T01:26:07.901Z,98529.88
2023-04-16T01:28:36.146Z,98530.06
2023-04-16T01:31:04.523Z,98529.41
2023-04-16T01:33:52.828Z,98533.72
2023-04-16T01:36:22.367Z,98527.84
2023-04-16T01:38:51.186Z,98514.53
2023-04-16T01:41:21.844Z,98519.81
2023-04-16T01:43:49.962Z,98524.19
2023-04-16T01:46:19.746Z,98520.78
2023-04-16T01:48:48.048Z,98542.94
2023-04-16T01:51:20.206Z,98535.78
2023-04-16T01:53:50.667Z,98527.16
2023-04-16T01:56:18.817Z,98521.19
2023-04-16T01:58:47.313Z,98520.31
2023-04-16T02:01:17.211Z,98520.59
2023-04-16T02:03:46.790Z,98527.41
2023-04-16T02:06:16.455Z,98536.72
2023-04-16T02:08:44.567Z,98538.78
2023-04-16T02:11:14.280Z,98539.19
2023-04-16T02:13:42.812Z,98551.69
2023-04-16T02:16:10.988Z,98548.72
2023-04-16T02:18:52.053Z,98551.28
2023-04-16T02:21:22.732Z,98544.44
2023-04-16T02:23:52.001Z,98547.50
2023-04-16T02:26:26.842Z,98546.66
2023-04-16T02:28:57.572Z,98531.94
2023-04-16T02:31:31.864Z,98533.16
2023-04-16T02:34:00.167Z,98541.59
2023-04-16T02:36:28.397Z,98529.41
2023-04-16T02:38:57.207Z,98531.81
2023-04-16T02:41:26.740Z,98529.44
2023-04-16T02:43:55.167Z,98544.50
2023-04-16T02:46:23.485Z,98539.72
2023-04-16T02:48:51.660Z,98527.09
2023-04-16T02:51:19.953Z,98528.38
2023-04-16T02:53:50.520Z,98538.38
2023-04-16T02:56:18.718Z,98541.03
2023-04-16T02:58:48.205Z,98530.16
2023-04-16T03:01:16.419Z,98542.28
2023-04-16T03:03:44.542Z,98547.56
2023-04-16T03:06:12.758Z,98547.78
2023-04-16T03:08:42.943Z,98549.25
2023-04-16T03:11:10.974Z,98556.56
2023-04-16T03:13:39.181Z,98545.94
2023-04-16T03:16:09.274Z,98545.88
2023-04-16T03:18:37.703Z,98544.34
2023-04-16T03:21:06.226Z,98549.69
2023-04-16T03:23:36.880Z,98553.00
2023-04-16T03:26:06.499Z,98553.28
2023-04-16T03:28:34.983Z,98559.41
2023-04-16T03:31:03.132Z,98560.69
2023-04-16T03:33:33.008Z,98565.94
2023-04-16T03:36:03.832Z,98569.69
2023-04-16T03:38:32.745Z,98568.75
2023-04-16T03:41:01.032Z,98584.66
2023-04-16T03:43:31.665Z,98582.84
2023-04-16T03:45:59.916Z,98584.53
2023-04-16T03:48:27.965Z,98595.72
2023-04-16T03:51:01.104Z,98599.00
2023-04-16T03:53:29.933Z,98606.25
2023-04-16T03:56:00.319Z,98613.03
2023-04-16T03:58:31.258Z,98606.06
2023-04-16T04:00:59.499Z,98606.47
2023-04-16T04:03:27.933Z,98602.34
2023-04-16T04:05:56.853Z,98601.06
2023-04-16T04:08:30.346Z,98607.28
2023-04-16T04:10:58.401Z,98620.75
2023-04-16T04:13:26.963Z,98613.31
2023-04-16T04:15:55.466Z,98616.31
2023-04-16T04:18:24.590Z,98615.63
2023-04-16T04:20:52.886Z,98600.56
2023-04-16T04:23:24.781Z,98600.34
2023-04-16T04:25:54.629Z,98595.34
2023-04-16T04:28:22.773Z,98592.81
2023-04-16T04:30:50.921Z,98592.75
2023-04-16T04:33:19.729Z,98608.22
2023-04-16T04:35:49.092Z,98602.53
2023-04-16T04:38:19.755Z,98608.13
2023-04-16T04:40:48.051Z,98610.81
2023-04-16T04:43:18.710Z,98618.16
2023-04-16T04:45:46.956Z,98615.56
2023-04-16T04:48:15.327Z,98638.34
2023-04-16T04:50:43.993Z,98630.28
2023-04-16T04:53:12.140Z,98638.78
2023-04-16T04:55:41.104Z,98641.25
2023-04-16T04:58:10.174Z,98644.13
2023-04-16T05:00:40.524Z,98649.75
2023-04-16T05:03:11.269Z,98659.88
2023-04-16T05:05:39.408Z,98668.75
2023-04-16T05:08:07.600Z,98665.06
2023-04-16T05:10:35.918Z,98666.50
2023-04-16T05:13:04.154Z,98666.72
2023-04-16T05:15:32.214Z,98672.50
2023-04-16T05:18:01.764Z,98677.28
2023-04-16T05:20:29.871Z,98681.22
2023-04-16T05:23:00.403Z,98678.72
2023-04-16T05:25:28.482Z,98691.75
2023-04-16T05:27:56.555Z,98691.56
2023-04-16T05:30:24.988Z,98688.03
2023-04-16T05:32:53.201Z,98696.50
2023-04-16T05:35:22.816Z,98691.13
2023-04-16T05:37:50.902Z,98702.72
2023-04-16T05:40:19.080Z,98694.06
2023-04-16T05:42:47.162Z,98694.03
2023-04-16T05:45:15.294Z,98698.00
2023-04-16T05:47:43.330Z,98697.53
2023-04-16T05:50:11.877Z,98705.78
2023-04-16T05:52:41.379Z,98708.06
2023-04-16T05:55:09.855Z,98718.03
2023-04-16T05:57:37.882Z,98715.34
2023-04-16T06:00:06.560Z,98724.06
2023-04-16T06:02:40.433Z,98730.25
2023-04-16T06:05:08.987Z,98715.13
2023-04-16T06:07:37.114Z,98730.88
2023-04-16T06:10:07.296Z,98724.00
2023-04-16T06:12:37.379Z,98732.72
2023-04-16T06:15:05.992Z,98734.19
2023-04-16T06:17:36.192Z,98735.03
2023-04-16T06:20:04.897Z,98728.16
2023-04-16T06:22:33.061Z,98735.63
2023-04-16T06:25:01.429Z,98738.09
2023-04-16T06:27:31.703Z,98729.03
2023-04-16T06:29:59.753Z,98735.03
2023-04-16T06:32:27.849Z,98730.88
2023-04-16T06:34:59.256Z,98726.13
2023-04-16T06:37:27.364Z,98739.22
2023-04-16T06:39:55.421Z,98734.06
2023-04-16T06:42:26.046Z,98735.91
2023-04-16T06:44:55.507Z,98737.53
2023-04-16T06:47:23.657Z,98734.84
2023-04-16T06:49:51.734Z,98736.09
2023-04-16T06:52:19.947Z,98727.00
2023-04-16T06:54:48.674Z,98730.75
2023-04-16T06:57:17.097Z,98737.34
2023-04-16T06:59:45.559Z,98743.56
2023-04-16T07:02:15.239Z,98742.53
2023-04-16T07:04:43.428Z,98737.31
2023-04-16T07:07:11.520Z,98740.25
2023-04-16T07:09:39.536Z,98734.88
2023-04-16T07:12:08.177Z,98736.53
2023-04-16T07:14:36.296Z,98733.03
2023-04-16T07:17:04.352Z,98726.78
2023-04-16T07:19:35.963Z,98724.72
2023-04-16T07:22:04.011Z,98735.88
2023-04-16T07:24:32.316Z,98731.13
2023-04-16T07:27:00.435Z,98732.34
2023-04-16T07:29:28.548Z,98727.19
2023-04-16T07:31:56.930Z,98732.19
2023-04-16T07:34:25.041Z,98726.97
2023-04-16T07:36:54.481Z,98729.88
2023-04-16T07:39:22.556Z,98734.38
2023-04-16T07:41:50.728Z,98722.63
2023-04-16T07:44:18.847Z,98724.06
2023-04-16T07:46:47.790Z,98725.72
2023-04-16T07:49:18.318Z,98734.81
2023-04-16T07:51:46.439Z,98716.22
2023-04-16T07:54:15.900Z,98734.84
2023-04-16T07:56:44.045Z,98733.22
2023-04-16T07:59:23.067Z,98729.91
2023-04-16T08:01:53.931Z,98745.66
2023-04-16T08:04:25.410Z,98734.59
2023-04-16T08:06:56.923Z,98742.72
2023-04-16T08:09:28.362Z,98736.09
2023-04-16T08:11:59.234Z,98729.03
2023-04-16T08:14:27.352Z,98744.59
2023-04-16T08:16:55.559Z,98751.00
2023-04-16T08:19:23.720Z,98749.78
2023-04-16T08:21:51.793Z,98755.13
2023-04-16T08:24:19.883Z,98762.19
2023-04-16T08:26:49.356Z,98762.63
2023-04-16T08:29:26.181Z,98762.19
2023-04-16T08:31:54.782Z,98766.34
2023-04-16T08:34:23.015Z,98772.97
2023-04-16T08:36:51.149Z,98769.88
2023-04-16T08:39:19.691Z,98768.13
2023-04-16T08:41:49.155Z,98762.38
2023-04-16T08:44:21.279Z,98760.50
2023-04-16T08:46:49.693Z,98764.81
2023-04-16T08:49:19.048Z,98767.16
2023-04-16T08:51:51.760Z,98759.22
2023-04-16T08:54:26.859Z,98767.81
2023-04-16T08:56:58.842Z,98763.38
2023-04-16T08:59:29.551Z,98757.97
2023-04-16T09:01:59.182Z,98767.94
2023-04-16T09:04:28.258Z,98772.97
2023-04-16T09:06:57.636Z,98773.75
2023-04-16T09:09:27.222Z,98773.25
2023-04-16T09:11:56.977Z,98769.16
2023-04-16T09:14:25.097Z,98770.41
2023-04-16T09:16:54.137Z,98771.41
2023-04-16T09:19:22.223Z,98779.81
2023-04-16T09:21:50.620Z,98775.97
2023-04-16T09:24:19.303Z,98769.09
2023-04-16T09:26:47.719Z,98773.66
2023-04-16T09:29:34.047Z,98776.81
2023-04-16T09:32:02.879Z,98776.63
2023-04-16T09:34:33.104Z,98784.09
2023-04-16T09:37:17.265Z,98764.19
2023-04-16T09:39:46.063Z,98790.19
2023-04-16T09:42:15.158Z,98792.69
2023-04-16T09:44:44.753Z,98794.03
2023-04-16T09:47:12.852Z,98795.47
2023-04-16T09:49:42.591Z,98807.00
2023-04-16T09:52:13.552Z,98788.19
2023-04-16T09:54:46.735Z,98793.75
2023-04-16T09:57:14.798Z,98798.97
2023-04-16T09:59:44.234Z,98811.44
2023-04-16T10:02:15.771Z,98805.88
2023-04-16T10:04:48.166Z,98811.22
2023-04-16T10:07:16.367Z,98812.09
2023-04-16T10:09:44.505Z,98817.09
2023-04-16T10:12:13.429Z,98819.75
2023-04-16T10:14:41.876Z,98828.41
2023-04-16T10:17:11.493Z,98823.06
2023-04-16T10:19:40.334Z,98827.78
2023-04-16T10:22:08.436Z,98833.38
2023-04-16T10:24:36.613Z,98836.78
2023-04-16T10:27:04.728Z,98841.72
2023-04-16T10:29:32.937Z,98846.75
2023-04-16T10:32:04.447Z,98854.22
2023-04-16T10:34:33.922Z,98855.44
2023-04-16T10:37:02.014Z,98857.94
2023-04-16T10:39:30.251Z,98862.13
2023-04-16T10:42:08.240Z,98861.06
2023-04-16T10:44:36.599Z,98864.38
2023-04-16T10:47:11.046Z,98866.44
2023-04-16T10:49:40.741Z,98872.66
2023-04-16T10:52:10.561Z,98873.50
2023-04-16T10:54:41.798Z,98872.25
2023-04-16T10:57:17.667Z,98874.13
2023-04-16T10:59:46.138Z,98870.81
2023-04-16T11:02:14.966Z,98871.81
2023-04-16T11:04:45.764Z,98879.09
2023-04-16T11:07:16.473Z,98880.34
2023-04-16T11:09:48.248Z,98882.22
2023-04-16T11:12:18.571Z,98878.66
2023-04-16T11:14:48.921Z,98880.34
2023-04-16T11:17:17.163Z,98884.88
2023-04-16T11:19:46.806Z,98879.91
2023-04-16T11:22:17.164Z,98886.78
2023-04-16T11:24:45.775Z,98893.63
2023-04-16T11:27:15.138Z,98889.47
2023-04-16T11:29:45.680Z,98894.88
2023-04-16T11:32:21.674Z,98892.78
2023-04-16T11:34:53.500Z,98896.09
2023-04-16T11:37:22.407Z,98892.56
2023-04-16T11:39:53.534Z,98895.66
2023-04-16T11:42:22.866Z,98890.31
2023-04-16T11:44:55.256Z,98889.03
2023-04-16T11:47:23.724Z,98889.44
2023-04-16T11:49:55.426Z,98887.38
2023-04-16T11:52:28.249Z,98893.00
2023-04-16T11:54:56.409Z,98894.03
2023-04-16T11:57:28.174Z,98895.25
2023-04-16T12:00:01.976Z,98898.59
2023-04-16T12:02:41.510Z,98899.19
2023-04-16T12:05:27.876Z,98902.31
2023-04-16T12:07:56.246Z,98901.91
2023-04-16T12:10:24.422Z,98901.09
2023-04-16T12:12:52.516Z,98902.75
2023-04-16T12:15:20.700Z,98897.78
2023-04-16T12:17:50.521Z,98902.53
2023-04-16T12:20:20.032Z,98913.69
2023-04-16T12:22:49.570Z,98908.97
2023-04-16T12:25:18.788Z,98912.69
2023-04-16T12:27:48.567Z,98912.28
2023-04-16T12:30:20.771Z,98917.06
2023-04-16T12:32:49.622Z,98915.41
2023-04-16T12:35:32.050Z,98915.19
2023-04-16T12:38:00.574Z,98927.00
2023-04-16T12:40:28.751Z,98927.22
2023-04-16T12:42:59.579Z,98923.25
2023-04-16T12:45:27.731Z,98917.66
2023-04-16T12:47:56.198Z,98919.28
2023-04-16T12:50:24.531Z,98918.06
2023-04-16T12:52:54.048Z,98929.69
2023-04-16T12:55:22.187Z,98918.09
2023-04-16T12:57:50.284Z,98920.97
2023-04-16T13:00:18.559Z,98924.06
2023-04-16T13:02:46.756Z,98923.19
2023-04-16T13:05:16.635Z,98912.69
2023-04-16T13:07:44.847Z,98914.56
2023-04-16T13:10:14.342Z,98914.72
2023-04-16T13:12:46.482Z,98906.38
2023-04-16T13:15:14.601Z,98906.16
2023-04-16T13:17:42.724Z,98896.41
2023-04-16T13:20:11.405Z,98894.06
2023-04-16T13:22:40.226Z,98907.19
2023-04-16T13:25:09.160Z,98900.25
2023-04-16T13:27:38.934Z,98894.94
2023-04-16T13:30:07.777Z,98895.72
2023-04-16T13:32:35.915Z,98890.28
2023-04-16T13:35:04.557Z,98899.09
2023-04-16T13:37:32.632Z,98896.59
2023-04-16T13:40:00.716Z,98896.78
2023-04-16T13:42:28.779Z,98909.50
2023-04-16T13:44:59.194Z,98909.97
2023-04-16T13:47:27.405Z,98914.31
2023-04-16T13:49:55.529Z,98915.34
2023-04-16T13:52:23.679Z,98923.66
2023-04-16T13:54:53.856Z,98930.72
2023-04-16T13:57:22.023Z,98929.00
2023-04-16T13:59:50.125Z,98922.97
2023-04-16T14:02:19.597Z,98923.59
2023-04-16T14:04:47.719Z,98926.31
2023-04-16T14:07:17.117Z,98933.97
2023-04-16T14:09:45.254Z,98924.53
2023-04-16T14:12:13.340Z,98931.94
2023-04-16T14:14:42.426Z,98929.63
2023-04-16T14:17:10.807Z,98930.75
2023-04-16T14:19:40.228Z,98927.38
2023-04-16T14:22:09.536Z,98928.03
2023-04-16T14:24:37.739Z,98929.91
2023-04-16T14:27:05.851Z,98927.38
2023-04-16T14:29:33.906Z,98928.44
2023-04-16T14:32:02.049Z,98927.63
2023-04-16T14:34:30.227Z,98929.66
2023-04-16T14:36:59.691Z,98929.47
2023-04-16T14:39:30.626Z,98922.97
2023-04-16T14:41:58.730Z,98917.63
2023-04-16T14:44:26.810Z,98924.28
2023-04-16T14:46:57.160Z,98928.84
2023-04-16T14:49:25.294Z,98926.19
2023-04-16T14:51:53.396Z,98928.63
2023-04-16T14:54:22.872Z,98942.13
2023-04-16T14:56:51.394Z,98931.31
2023-04-16T14:59:19.482Z,98937.97
2023-04-16T15:01:47.670Z,98934.84
2023-04-16T15:04:18.340Z,98942.13
2023-04-16T15:06:46.803Z,98940.91
2023-04-16T15:09:14.863Z,98942.75
2023-04-16T15:11:44.298Z,98944.59
2023-04-16T15:14:12.657Z,98937.56
2023-04-16T15:16:41.248Z,98940.47
2023-04-16T15:19:09.721Z,98938.59
2023-04-16T15:21:40.291Z,98943.56
2023-04-16T15:24:09.110Z,98944.00
2023-04-16T15:26:37.444Z,98952.09
2023-04-16T15:29:06.934Z,98955.00
2023-04-16T15:31:35.039Z,98952.09
2023-04-16T15:34:05.160Z,98957.91
2023-04-16T15:36:33.353Z,98953.25
2023-04-16T15:39:01.605Z,98954.16
2023-04-16T15:41:30.184Z,98961.63
2023-04-16T15:44:00.579Z,98960.16
2023-04-16T15:46:30.311Z,98956.19
2023-04-16T15:48:58.836Z,98950.59
2023-04-16T15:51:27.173Z,98956.03
2023-04-16T15:53:55.285Z,98948.78
2023-04-16T15:56:23.325Z,98951.63
2023-04-16T15:58:51.438Z,98944.59
2023-04-16T16:01:19.605Z,98949.72
2023-04-16T16:03:49.222Z,98956.63
2023-04-16T16:06:17.893Z,98945.81
2023-04-16T16:08:46.042Z,98953.72
2023-04-16T16:11:14.160Z,98950.44
2023-04-16T16:13:43.422Z,98956.81
2023-04-16T16:16:11.505Z,98956.25
2023-04-16T16:18:39.680Z,98949.94
2023-04-16T16:21:11.755Z,98951.84
2023-04-16T16:23:39.889Z,98957.25
2023-04-16T16:26:07.947Z,98955.59
2023-04-16T16:28:37.603Z,98958.31
2023-04-16T16:31:06.847Z,98963.69
2023-04-16T16:33:34.979Z,98964.31
2023-04-16T16:36:03.939Z,98963.25
2023-04-16T16:38:33.553Z,98959.94
2023-04-16T16:41:01.630Z,98965.13
2023-04-16T16:43:29.659Z,98964.72
2023-04-16T16:45:57.886Z,98964.72
2023-04-16T16:48:26.008Z,98963.47
2023-04-16T16:50:54.029Z,98966.78
2023-04-16T16:53:22.123Z,98962.47
2023-04-16T16:55:51.764Z,98959.09
2023-04-16T16:58:19.782Z,98964.09
2023-04-16T17:00:48.711Z,98963.25
2023-04-16T17:03:17.043Z,98969.06
2023-04-16T17:05:45.314Z,98963.69
2023-04-16T17:08:15.646Z,98967.41
2023-04-16T17:10:44.004Z,98964.88
2023-04-16T17:13:13.656Z,98964.72
2023-04-16T17:15:41.976Z,98973.22
2023-04-16T17:18:09.994Z,98974.06
2023-04-16T17:20:38.003Z,98972.81
2023-04-16T17:23:06.098Z,98967.78
2023-04-16T17:25:34.106Z,98968.63
2023-04-16T17:28:02.129Z,98972.34
2023-04-16T17:30:32.568Z,98968.44
2023-04-16T17:33:00.869Z,98969.28
2023-04-16T17:35:29.023Z,98971.56
2023-04-16T17:37:57.020Z,98972.41
2023-04-16T17:40:27.107Z,98972.59
2023-04-16T17:42:55.134Z,98979.88
2023-04-16T17:45:23.172Z,98972.19
2023-04-16T17:47:52.629Z,98978.84
2023-04-16T17:50:20.857Z,98981.69
2023-04-16T17:52:48.819Z,98984.44
2023-04-16T17:55:18.952Z,98985.06
2023-04-16T17:57:46.971Z,98990.66
2023-04-16T18:00:16.150Z,98994.00
2023-04-16T18:02:45.351Z,99001.88
2023-04-16T18:05:14.784Z,98997.72
2023-04-16T18:07:43.655Z,99000.63
2023-04-16T18:10:12.198Z,99003.50
2023-04-16T18:12:40.197Z,98996.22
2023-04-16T18:15:08.781Z,99001.06
2023-04-16T18:17:36.925Z,99002.28
2023-04-16T18:20:07.106Z,99002.94
2023-04-16T18:22:36.520Z,99012.03
2023-04-16T18:25:07.633Z,99006.22
2023-04-16T18:27:35.674Z,99008.50
2023-04-16T18:30:04.526Z,99001.88
2023-04-16T18:32:33.283Z,99015.16
2023-04-16T18:35:01.682Z,99014.53
2023-04-16T18:37:33.209Z,99014.75
2023-04-16T18:40:03.762Z,99018.50
2023-04-16T18:42:31.836Z,99018.09
2023-04-16T18:45:02.189Z,99023.25
2023-04-16T18:47:30.401Z,99028.06
2023-04-16T18:49:58.542Z,99033.03
2023-04-16T18:52:27.791Z,99033.03
2023-04-16T18:54:56.045Z,99042.78
2023-04-16T18:57:27.983Z,99045.91
2023-04-16T18:59:56.169Z,99049.63
2023-04-16T19:02:24.419Z,99056.09
2023-04-16T19:04:52.588Z,99047.97
2023-04-16T19:07:20.681Z,99055.44
2023-04-16T19:09:48.690Z,99058.97
2023-04-16T19:12:16.690Z,99063.56
2023-04-16T19:14:46.180Z,99063.78
2023-04-16T19:17:14.178Z,99069.56
2023-04-16T19:19:42.260Z,99068.97
2023-04-16T19:22:10.469Z,99066.66
2023-04-16T19:24:38.607Z,99067.06
2023-04-16T19:27:06.651Z,99064.38
2023-04-16T19:29:34.750Z,99075.38
2023-04-16T19:32:04.334Z,99079.94
2023-04-16T19:34:32.373Z,99070.81
2023-04-16T19:37:00.475Z,99075.59
2023-04-16T19:39:28.617Z,99071.22
2023-04-16T19:41:57.014Z,99068.75
2023-04-16T19:44:25.268Z,99065.19
2023-04-16T19:46:53.267Z,99069.97
2023-04-16T19:49:22.692Z,99076.19
2023-04-16T19:51:50.743Z,99076.19
2023-04-16T19:54:21.314Z,99074.13
2023-04-16T19:56:51.609Z,99080.16
2023-04-16T19:59:20.523Z,99074.13
2023-04-16T20:01:48.627Z,99070.81
2023-04-16T20:04:16.669Z,99076.22
2023-04-16T20:06:46.485Z,99074.53
2023-04-16T20:09:18.550Z,99071.44
2023-04-16T20:11:46.648Z,99082.44
2023-04-16T20:14:14.858Z,99078.69
2023-04-16T20:16:43.612Z,99089.28
2023-04-16T20:19:18.432Z,99083.66
2023-04-16T20:21:47.806Z,99087.00
2023-04-16T20:24:15.800Z,99082.03
2023-04-16T20:26:43.832Z,99074.97
2023-04-16T20:29:14.662Z,99083.28
2023-04-16T20:31:44.398Z,99074.94
2023-04-16T20:34:12.447Z,99077.03
2023-04-16T20:36:40.498Z,99071.00
2023-04-16T20:39:12.490Z,99074.13
2023-04-16T20:41:43.882Z,99078.28
2023-04-16T20:44:18.104Z,99074.53
2023-04-16T20:46:50.769Z,99082.00
2023-04-16T20:49:19.038Z,99079.13
2023-04-16T20:51:47.116Z,99071.63
2023-04-16T20:54:16.546Z,99075.56
2023-04-16T20:56:44.812Z,99073.72
2023-04-16T20:59:13.517Z,99067.69
2023-04-16T21:01:41.738Z,99069.56
2023-04-16T21:04:10.050Z,99068.34
2023-04-16T21:06:38.559Z,99069.16
2023-04-16T21:09:06.940Z,99059.38
2023-04-16T21:11:38.810Z,99055.47
2023-04-16T21:14:06.898Z,99053.34
2023-04-16T21:16:34.956Z,99057.53
2023-04-16T21:19:05.471Z,99047.97
2023-04-16T21:21:33.623Z,99056.28
2023-04-16T21:24:01.681Z,99051.28
2023-04-16T21:26:29.768Z,99046.94
2023-04-16T21:29:01.803Z,99048.41
2023-04-16T21:31:30.130Z,99054.00
2023-04-16T21:33:58.470Z,99058.97
2023-04-16T21:36:29.170Z,99059.38
2023-04-16T21:38:59.523Z,99053.78
2023-04-16T21:41:27.698Z,99062.91
2023-04-16T21:43:58.145Z,99055.66
2023-04-16T21:46:27.792Z,99061.44
2023-04-16T21:48:58.081Z,99062.31
2023-04-16T21:51:29.820Z,99061.25
2023-04-16T21:53:57.957Z,99069.53
2023-04-16T21:56:26.365Z,99064.53
2023-04-16T21:58:54.488Z,99064.78
2023-04-16T22:02:39.023Z,99050.03
2023-04-16T22:05:07.917Z,99051.69
2023-04-16T22:07:36.555Z,99051.28
2023-04-16T22:10:04.836Z,99047.34
2023-04-16T22:12:32.818Z,99048.38
2023-04-16T22:15:03.101Z,99053.78
2023-04-16T22:17:33.944Z,99049.63
2023-04-16T22:20:08.545Z,99044.44
2023-04-16T22:22:39.298Z,99041.09
2023-04-16T22:25:07.645Z,99044.66
2023-04-16T22:27:35.747Z,99047.75
2023-04-16T22:30:04.127Z,63131.69
2023-04-16T22:32:33.084Z,63131.69
2023-04-16T22:35:01.959Z,63131.69
2023-04-16T22:37:31.423Z,63131.69
2023-04-16T22:39:59.505Z,63131.69
2023-04-16T22:42:28.063Z,63131.69
2023-04-16T22:44:56.185Z,63131.69
2023-04-16T22:47:24.213Z,63131.69
2023-04-16T22:49:52.245Z,63131.69
2023-04-16T22:52:20.769Z,63131.69
2023-04-16T22:54:50.279Z,63131.69
2023-04-16T22:57:21.046Z,63131.69
2023-04-16T22:59:49.231Z,63131.69
2023-04-16T23:02:17.351Z,63131.69
2023-04-16T23:04:46.054Z,63131.69
2023-04-16T23:07:14.391Z,63131.69
2023-04-16T23:09:42.540Z,63131.69
2023-04-16T23:12:11.889Z,63131.69
2023-04-16T23:14:39.939Z,63131.69
2023-04-16T23:17:07.950Z,63131.69
2023-04-16T23:19:35.986Z,63131.69
2023-04-16T23:22:04.531Z,63131.69
2023-04-16T23:24:32.557Z,63131.69
2023-04-16T23:27:01.048Z,63131.69
2023-04-16T23:29:30.471Z,63131.69
2023-04-16T23:31:58.623Z,63131.69
2023-04-16T23:34:26.763Z,63131.69
2023-04-16T23:36:55.140Z,63131.69
2023-04-16T23:39:25.302Z,63131.69
2023-04-16T23:41:53.437Z,63131.69
2023-04-16T23:44:21.598Z,63131.69
2023-04-16T23:46:53.466Z,63131.69
2023-04-16T23:49:21.551Z,63131.69
2023-04-16T23:51:49.661Z,63131.69
2023-04-16T23:54:18.139Z,63131.69
2023-04-16T23:56:46.230Z,63131.69
2023-04-16T23:59:14.470Z,63131.69
